sensor_id;sensor_type;location;lat;lon;timestamp;P1;durP1;ratioP1;P2;durP2;ratioP2
69161;SDS011;56269;51.738;21.652;2022-09-29T00:00:33;21.97;;;10.57;;
69161;SDS011;56269;51.738;21.652;2022-09-29T00:03:19;22.00;;;10.38;;
69161;SDS011;56269;51.738;21.652;2022-09-29T00:05:47;21.42;;;10.20;;
69161;SDS011;56269;51.738;21.652;2022-09-29T00:08:14;21.58;;;9.90;;
69161;SDS011;56269;51.738;21.652;2022-09-29T00:10:41;19.75;;;9.02;;
69161;SDS011;56269;51.738;21.652;2022-09-29T00:13:07;17.77;;;9.57;;
69161;SDS011;56269;51.738;21.652;2022-09-29T00:15:34;19.77;;;9.55;;
69161;SDS011;56269;51.738;21.652;2022-09-29T00:18:00;19.63;;;9.73;;
69161;SDS011;56269;51.738;21.652;2022-09-29T00:20:26;19.85;;;9.88;;
69161;SDS011;56269;51.738;21.652;2022-09-29T00:22:52;17.70;;;9.17;;
69161;SDS011;56269;51.738;21.652;2022-09-29T00:25:18;17.75;;;8.75;;
69161;SDS011;56269;51.738;21.652;2022-09-29T00:27:44;16.70;;;8.25;;
69161;SDS011;56269;51.738;21.652;2022-09-29T00:30:11;14.68;;;7.70;;
69161;SDS011;56269;51.738;21.652;2022-09-29T00:32:37;16.40;;;7.97;;
69161;SDS011;56269;51.738;21.652;2022-09-29T00:35:03;14.93;;;8.05;;
69161;SDS011;56269;51.738;21.652;2022-09-29T00:37:29;14.60;;;8.00;;
69161;SDS011;56269;51.738;21.652;2022-09-29T00:39:55;16.10;;;7.93;;
69161;SDS011;56269;51.738;21.652;2022-09-29T00:42:21;15.53;;;7.37;;
69161;SDS011;56269;51.738;21.652;2022-09-29T00:45:01;16.10;;;7.88;;
69161;SDS011;56269;51.738;21.652;2022-09-29T00:47:47;14.85;;;7.30;;
69161;SDS011;56269;51.738;21.652;2022-09-29T00:50:42;15.30;;;6.80;;
69161;SDS011;56269;51.738;21.652;2022-09-29T00:53:11;15.30;;;7.75;;
69161;SDS011;56269;51.738;21.652;2022-09-29T00:55:43;13.87;;;6.97;;
69161;SDS011;56269;51.738;21.652;2022-09-29T01:00:51;16.65;;;7.32;;
69161;SDS011;56269;51.738;21.652;2022-09-29T01:03:18;16.27;;;7.40;;
69161;SDS011;56269;51.738;21.652;2022-09-29T01:06:05;12.45;;;6.47;;
69161;SDS011;56269;51.738;21.652;2022-09-29T01:11:26;14.38;;;6.55;;
69161;SDS011;56269;51.738;21.652;2022-09-29T01:13:54;15.15;;;6.68;;
69161;SDS011;56269;51.738;21.652;2022-09-29T01:16:25;13.88;;;6.55;;
69161;SDS011;56269;51.738;21.652;2022-09-29T01:18:51;13.67;;;6.83;;
69161;SDS011;56269;51.738;21.652;2022-09-29T01:26:59;11.70;;;6.18;;
69161;SDS011;56269;51.738;21.652;2022-09-29T01:38:01;12.40;;;5.93;;
69161;SDS011;56269;51.738;21.652;2022-09-29T01:43:24;11.52;;;5.68;;
69161;SDS011;56269;51.738;21.652;2022-09-29T01:46:08;14.77;;;6.20;;
69161;SDS011;56269;51.738;21.652;2022-09-29T01:48:44;13.13;;;5.60;;
69161;SDS011;56269;51.738;21.652;2022-09-29T01:51:16;12.15;;;6.03;;
69161;SDS011;56269;51.738;21.652;2022-09-29T01:53:48;12.38;;;6.30;;
69161;SDS011;56269;51.738;21.652;2022-09-29T01:57:07;13.05;;;6.18;;
69161;SDS011;56269;51.738;21.652;2022-09-29T02:00:00;12.17;;;6.00;;
69161;SDS011;56269;51.738;21.652;2022-09-29T02:02:21;17.60;;;5.80;;
69161;SDS011;56269;51.738;21.652;2022-09-29T02:05:54;12.70;;;5.55;;
69161;SDS011;56269;51.738;21.652;2022-09-29T02:08:06;10.93;;;5.18;;
69161;SDS011;56269;51.738;21.652;2022-09-29T02:10:54;10.43;;;5.32;;
69161;SDS011;56269;51.738;21.652;2022-09-29T02:13:52;12.50;;;5.67;;
69161;SDS011;56269;51.738;21.652;2022-09-29T02:16:21;11.02;;;5.25;;
69161;SDS011;56269;51.738;21.652;2022-09-29T02:18:52;11.30;;;5.63;;
69161;SDS011;56269;51.738;21.652;2022-09-29T02:21:20;10.40;;;5.25;;
69161;SDS011;56269;51.738;21.652;2022-09-29T02:23:48;10.55;;;5.22;;
69161;SDS011;56269;51.738;21.652;2022-09-29T02:26:14;11.63;;;5.10;;
69161;SDS011;56269;51.738;21.652;2022-09-29T02:28:43;11.57;;;5.65;;
69161;SDS011;56269;51.738;21.652;2022-09-29T02:31:10;9.07;;;4.78;;
69161;SDS011;56269;51.738;21.652;2022-09-29T02:33:37;11.50;;;5.38;;
69161;SDS011;56269;51.738;21.652;2022-09-29T02:36:10;11.60;;;5.50;;
69161;SDS011;56269;51.738;21.652;2022-09-29T02:41:31;11.73;;;5.28;;
69161;SDS011;56269;51.738;21.652;2022-09-29T02:47:03;10.40;;;5.03;;
69161;SDS011;56269;51.738;21.652;2022-09-29T02:50:12;11.20;;;5.05;;
69161;SDS011;56269;51.738;21.652;2022-09-29T02:53:01;11.67;;;5.10;;
69161;SDS011;56269;51.738;21.652;2022-09-29T03:01:02;9.90;;;4.95;;
69161;SDS011;56269;51.738;21.652;2022-09-29T03:03:30;10.45;;;5.25;;
69161;SDS011;56269;51.738;21.652;2022-09-29T03:05:55;9.77;;;4.90;;
69161;SDS011;56269;51.738;21.652;2022-09-29T03:08:22;9.93;;;5.00;;
69161;SDS011;56269;51.738;21.652;2022-09-29T03:10:48;9.95;;;4.78;;
69161;SDS011;56269;51.738;21.652;2022-09-29T03:13:14;10.23;;;4.75;;
69161;SDS011;56269;51.738;21.652;2022-09-29T03:15:40;9.57;;;4.40;;
69161;SDS011;56269;51.738;21.652;2022-09-29T03:18:06;10.27;;;4.97;;
69161;SDS011;56269;51.738;21.652;2022-09-29T03:20:32;10.13;;;4.90;;
69161;SDS011;56269;51.738;21.652;2022-09-29T03:22:58;12.97;;;5.37;;
69161;SDS011;56269;51.738;21.652;2022-09-29T03:25:24;12.02;;;5.18;;
69161;SDS011;56269;51.738;21.652;2022-09-29T03:27:50;14.73;;;5.05;;
69161;SDS011;56269;51.738;21.652;2022-09-29T03:30:17;13.00;;;4.70;;
69161;SDS011;56269;51.738;21.652;2022-09-29T03:32:44;11.32;;;5.18;;
69161;SDS011;56269;51.738;21.652;2022-09-29T03:35:10;11.17;;;4.97;;
69161;SDS011;56269;51.738;21.652;2022-09-29T03:37:36;10.75;;;5.32;;
69161;SDS011;56269;51.738;21.652;2022-09-29T03:40:03;11.73;;;5.47;;
69161;SDS011;56269;51.738;21.652;2022-09-29T03:42:30;10.95;;;5.20;;
69161;SDS011;56269;51.738;21.652;2022-09-29T03:44:57;11.35;;;4.90;;
69161;SDS011;56269;51.738;21.652;2022-09-29T03:47:23;11.43;;;5.47;;
69161;SDS011;56269;51.738;21.652;2022-09-29T03:49:49;10.25;;;5.03;;
69161;SDS011;56269;51.738;21.652;2022-09-29T03:52:15;9.95;;;4.88;;
69161;SDS011;56269;51.738;21.652;2022-09-29T03:54:41;11.70;;;5.53;;
69161;SDS011;56269;51.738;21.652;2022-09-29T03:57:07;14.77;;;5.37;;
69161;SDS011;56269;51.738;21.652;2022-09-29T03:59:33;10.68;;;5.25;;
69161;SDS011;56269;51.738;21.652;2022-09-29T04:02:00;10.73;;;5.45;;
69161;SDS011;56269;51.738;21.652;2022-09-29T04:04:26;11.45;;;5.30;;
69161;SDS011;56269;51.738;21.652;2022-09-29T04:06:51;10.73;;;4.90;;
69161;SDS011;56269;51.738;21.652;2022-09-29T04:09:17;11.27;;;5.55;;
69161;SDS011;56269;51.738;21.652;2022-09-29T04:11:43;11.07;;;5.45;;
69161;SDS011;56269;51.738;21.652;2022-09-29T04:14:09;10.60;;;5.28;;
69161;SDS011;56269;51.738;21.652;2022-09-29T04:16:35;11.57;;;5.20;;
69161;SDS011;56269;51.738;21.652;2022-09-29T04:19:01;10.77;;;5.32;;
69161;SDS011;56269;51.738;21.652;2022-09-29T04:21:27;11.23;;;5.20;;
69161;SDS011;56269;51.738;21.652;2022-09-29T04:23:54;10.93;;;5.38;;
69161;SDS011;56269;51.738;21.652;2022-09-29T04:29:06;12.68;;;5.50;;
69161;SDS011;56269;51.738;21.652;2022-09-29T04:31:32;11.90;;;5.47;;
69161;SDS011;56269;51.738;21.652;2022-09-29T04:33:58;12.98;;;5.30;;
69161;SDS011;56269;51.738;21.652;2022-09-29T04:36:24;9.52;;;5.03;;
69161;SDS011;56269;51.738;21.652;2022-09-29T04:38:50;13.93;;;5.17;;
69161;SDS011;56269;51.738;21.652;2022-09-29T04:41:16;9.82;;;4.78;;
69161;SDS011;56269;51.738;21.652;2022-09-29T04:43:42;11.95;;;4.80;;
69161;SDS011;56269;51.738;21.652;2022-09-29T04:46:08;11.23;;;4.70;;
69161;SDS011;56269;51.738;21.652;2022-09-29T04:48:35;9.73;;;4.30;;
69161;SDS011;56269;51.738;21.652;2022-09-29T04:51:03;10.25;;;4.85;;
69161;SDS011;56269;51.738;21.652;2022-09-29T04:53:30;12.07;;;5.45;;
69161;SDS011;56269;51.738;21.652;2022-09-29T04:55:56;10.05;;;5.10;;
69161;SDS011;56269;51.738;21.652;2022-09-29T04:58:22;10.87;;;5.13;;
69161;SDS011;56269;51.738;21.652;2022-09-29T05:00:48;10.30;;;5.10;;
69161;SDS011;56269;51.738;21.652;2022-09-29T05:03:14;12.10;;;5.65;;
69161;SDS011;56269;51.738;21.652;2022-09-29T05:05:40;12.85;;;5.90;;
69161;SDS011;56269;51.738;21.652;2022-09-29T05:08:06;13.33;;;6.17;;
69161;SDS011;56269;51.738;21.652;2022-09-29T05:10:32;13.07;;;6.35;;
69161;SDS011;56269;51.738;21.652;2022-09-29T05:12:59;11.25;;;5.68;;
69161;SDS011;56269;51.738;21.652;2022-09-29T05:15:25;12.90;;;6.30;;
69161;SDS011;56269;51.738;21.652;2022-09-29T05:17:51;15.93;;;7.30;;
69161;SDS011;56269;51.738;21.652;2022-09-29T05:20:18;11.85;;;5.90;;
69161;SDS011;56269;51.738;21.652;2022-09-29T05:22:44;10.43;;;5.15;;
69161;SDS011;56269;51.738;21.652;2022-09-29T05:25:10;11.52;;;5.20;;
69161;SDS011;56269;51.738;21.652;2022-09-29T05:27:36;12.43;;;5.33;;
69161;SDS011;56269;51.738;21.652;2022-09-29T05:30:02;11.52;;;5.50;;
69161;SDS011;56269;51.738;21.652;2022-09-29T05:32:29;12.77;;;5.38;;
69161;SDS011;56269;51.738;21.652;2022-09-29T05:34:55;11.63;;;5.65;;
69161;SDS011;56269;51.738;21.652;2022-09-29T05:37:22;11.95;;;5.90;;
69161;SDS011;56269;51.738;21.652;2022-09-29T05:39:48;13.17;;;6.13;;
69161;SDS011;56269;51.738;21.652;2022-09-29T05:42:15;14.07;;;5.88;;
69161;SDS011;56269;51.738;21.652;2022-09-29T05:44:40;11.55;;;5.70;;
69161;SDS011;56269;51.738;21.652;2022-09-29T05:47:07;11.90;;;6.03;;
69161;SDS011;56269;51.738;21.652;2022-09-29T05:49:33;12.00;;;6.37;;
69161;SDS011;56269;51.738;21.652;2022-09-29T05:52:01;11.70;;;5.60;;
69161;SDS011;56269;51.738;21.652;2022-09-29T05:54:27;13.60;;;5.78;;
69161;SDS011;56269;51.738;21.652;2022-09-29T05:56:53;14.07;;;5.85;;
69161;SDS011;56269;51.738;21.652;2022-09-29T05:59:19;13.13;;;6.37;;
69161;SDS011;56269;51.738;21.652;2022-09-29T06:01:45;13.45;;;5.95;;
69161;SDS011;56269;51.738;21.652;2022-09-29T06:04:11;10.75;;;4.95;;
69161;SDS011;56269;51.738;21.652;2022-09-29T06:06:37;11.77;;;5.45;;
69161;SDS011;56269;51.738;21.652;2022-09-29T06:09:04;10.93;;;5.33;;
69161;SDS011;56269;51.738;21.652;2022-09-29T06:11:31;12.52;;;6.07;;
69161;SDS011;56269;51.738;21.652;2022-09-29T06:13:57;13.30;;;5.28;;
69161;SDS011;56269;51.738;21.652;2022-09-29T06:16:24;11.35;;;5.57;;
69161;SDS011;56269;51.738;21.652;2022-09-29T06:18:52;11.50;;;6.07;;
69161;SDS011;56269;51.738;21.652;2022-09-29T06:21:19;13.07;;;5.50;;
69161;SDS011;56269;51.738;21.652;2022-09-29T06:23:48;10.75;;;5.28;;
69161;SDS011;56269;51.738;21.652;2022-09-29T06:26:16;10.02;;;4.43;;
69161;SDS011;56269;51.738;21.652;2022-09-29T06:28:43;12.30;;;5.90;;
69161;SDS011;56269;51.738;21.652;2022-09-29T06:31:10;14.47;;;5.53;;
69161;SDS011;56269;51.738;21.652;2022-09-29T06:33:38;11.20;;;5.40;;
69161;SDS011;56269;51.738;21.652;2022-09-29T06:36:09;11.40;;;5.38;;
69161;SDS011;56269;51.738;21.652;2022-09-29T06:39:00;11.38;;;4.80;;
69161;SDS011;56269;51.738;21.652;2022-09-29T06:41:26;11.35;;;5.32;;
69161;SDS011;56269;51.738;21.652;2022-09-29T06:43:54;11.60;;;5.43;;
69161;SDS011;56269;51.738;21.652;2022-09-29T06:46:21;12.48;;;5.75;;
69161;SDS011;56269;51.738;21.652;2022-09-29T06:48:47;10.82;;;5.60;;
69161;SDS011;56269;51.738;21.652;2022-09-29T06:51:13;12.70;;;5.05;;
69161;SDS011;56269;51.738;21.652;2022-09-29T06:53:40;11.65;;;5.15;;
69161;SDS011;56269;51.738;21.652;2022-09-29T06:56:06;9.77;;;4.60;;
69161;SDS011;56269;51.738;21.652;2022-09-29T06:58:33;13.00;;;5.60;;
69161;SDS011;56269;51.738;21.652;2022-09-29T07:01:00;10.30;;;4.55;;
69161;SDS011;56269;51.738;21.652;2022-09-29T07:03:29;11.65;;;4.68;;
69161;SDS011;56269;51.738;21.652;2022-09-29T07:05:55;12.03;;;5.07;;
69161;SDS011;56269;51.738;21.652;2022-09-29T07:08:22;12.18;;;5.80;;
69161;SDS011;56269;51.738;21.652;2022-09-29T07:10:48;14.25;;;5.85;;
69161;SDS011;56269;51.738;21.652;2022-09-29T07:13:14;14.88;;;5.97;;
69161;SDS011;56269;51.738;21.652;2022-09-29T07:15:40;12.27;;;5.60;;
69161;SDS011;56269;51.738;21.652;2022-09-29T07:18:06;9.20;;;4.28;;
69161;SDS011;56269;51.738;21.652;2022-09-29T07:20:32;12.23;;;5.97;;
69161;SDS011;56269;51.738;21.652;2022-09-29T07:23:00;12.38;;;5.60;;
69161;SDS011;56269;51.738;21.652;2022-09-29T07:25:26;12.03;;;5.93;;
69161;SDS011;56269;51.738;21.652;2022-09-29T07:27:52;12.18;;;5.80;;
69161;SDS011;56269;51.738;21.652;2022-09-29T07:30:18;12.38;;;5.93;;
69161;SDS011;56269;51.738;21.652;2022-09-29T07:32:45;14.15;;;5.63;;
69161;SDS011;56269;51.738;21.652;2022-09-29T07:35:11;11.73;;;5.97;;
69161;SDS011;56269;51.738;21.652;2022-09-29T07:37:37;10.88;;;4.97;;
69161;SDS011;56269;51.738;21.652;2022-09-29T07:40:03;11.05;;;4.95;;
69161;SDS011;56269;51.738;21.652;2022-09-29T07:42:29;12.07;;;5.07;;
69161;SDS011;56269;51.738;21.652;2022-09-29T07:44:55;11.25;;;5.05;;
69161;SDS011;56269;51.738;21.652;2022-09-29T07:47:22;11.33;;;5.47;;
69161;SDS011;56269;51.738;21.652;2022-09-29T07:49:48;12.15;;;5.53;;
69161;SDS011;56269;51.738;21.652;2022-09-29T07:52:14;11.00;;;5.13;;
69161;SDS011;56269;51.738;21.652;2022-09-29T07:54:40;12.10;;;5.35;;
69161;SDS011;56269;51.738;21.652;2022-09-29T07:57:06;10.83;;;5.40;;
69161;SDS011;56269;51.738;21.652;2022-09-29T07:59:32;11.80;;;5.57;;
69161;SDS011;56269;51.738;21.652;2022-09-29T08:01:58;12.30;;;5.72;;
69161;SDS011;56269;51.738;21.652;2022-09-29T08:04:24;11.33;;;5.47;;
69161;SDS011;56269;51.738;21.652;2022-09-29T08:06:50;11.20;;;5.47;;
69161;SDS011;56269;51.738;21.652;2022-09-29T08:09:16;13.20;;;5.32;;
69161;SDS011;56269;51.738;21.652;2022-09-29T08:11:42;12.37;;;5.80;;
69161;SDS011;56269;51.738;21.652;2022-09-29T08:14:10;10.13;;;4.53;;
69161;SDS011;56269;51.738;21.652;2022-09-29T08:16:36;10.05;;;4.65;;
69161;SDS011;56269;51.738;21.652;2022-09-29T08:19:03;10.77;;;5.28;;
69161;SDS011;56269;51.738;21.652;2022-09-29T08:21:30;11.65;;;5.45;;
69161;SDS011;56269;51.738;21.652;2022-09-29T08:24:02;10.73;;;5.22;;
69161;SDS011;56269;51.738;21.652;2022-09-29T08:26:30;9.83;;;4.83;;
69161;SDS011;56269;51.738;21.652;2022-09-29T08:29:01;11.75;;;5.78;;
69161;SDS011;56269;51.738;21.652;2022-09-29T08:31:27;12.18;;;5.43;;
69161;SDS011;56269;51.738;21.652;2022-09-29T08:33:54;12.30;;;5.47;;
69161;SDS011;56269;51.738;21.652;2022-09-29T08:36:23;10.93;;;5.20;;
69161;SDS011;56269;51.738;21.652;2022-09-29T08:38:50;10.43;;;4.80;;
69161;SDS011;56269;51.738;21.652;2022-09-29T08:42:01;14.68;;;5.57;;
69161;SDS011;56269;51.738;21.652;2022-09-29T08:47:12;9.00;;;4.20;;
69161;SDS011;56269;51.738;21.652;2022-09-29T08:49:56;10.25;;;4.70;;
69161;SDS011;56269;51.738;21.652;2022-09-29T08:52:28;9.87;;;4.97;;
69161;SDS011;56269;51.738;21.652;2022-09-29T08:54:59;10.05;;;4.88;;
69161;SDS011;56269;51.738;21.652;2022-09-29T08:57:47;10.35;;;4.53;;
69161;SDS011;56269;51.738;21.652;2022-09-29T09:00:17;10.65;;;4.50;;
69161;SDS011;56269;51.738;21.652;2022-09-29T09:05:29;10.53;;;4.70;;
69161;SDS011;56269;51.738;21.652;2022-09-29T09:11:06;9.63;;;4.50;;
69161;SDS011;56269;51.738;21.652;2022-09-29T09:16:24;8.65;;;4.30;;
69161;SDS011;56269;51.738;21.652;2022-09-29T09:18:55;9.33;;;4.13;;
69161;SDS011;56269;51.738;21.652;2022-09-29T09:21:41;8.80;;;4.32;;
69161;SDS011;56269;51.738;21.652;2022-09-29T09:24:16;10.00;;;4.97;;
69161;SDS011;56269;51.738;21.652;2022-09-29T09:26:57;9.38;;;4.22;;
69161;SDS011;56269;51.738;21.652;2022-09-29T09:29:27;11.25;;;5.07;;
69161;SDS011;56269;51.738;21.652;2022-09-29T09:34:34;8.55;;;4.20;;
69161;SDS011;56269;51.738;21.652;2022-09-29T09:37:17;8.40;;;4.10;;
69161;SDS011;56269;51.738;21.652;2022-09-29T09:42:40;9.32;;;4.00;;
69161;SDS011;56269;51.738;21.652;2022-09-29T09:48:57;9.77;;;4.30;;
69161;SDS011;56269;51.738;21.652;2022-09-29T09:51:15;8.75;;;4.20;;
69161;SDS011;56269;51.738;21.652;2022-09-29T09:54:08;8.98;;;4.07;;
69161;SDS011;56269;51.738;21.652;2022-09-29T09:59:34;8.57;;;4.23;;
69161;SDS011;56269;51.738;21.652;2022-09-29T10:02:13;7.30;;;3.40;;
69161;SDS011;56269;51.738;21.652;2022-09-29T10:04:45;7.43;;;3.65;;
69161;SDS011;56269;51.738;21.652;2022-09-29T10:07:14;7.20;;;3.50;;
69161;SDS011;56269;51.738;21.652;2022-09-29T10:09:40;9.57;;;3.88;;
69161;SDS011;56269;51.738;21.652;2022-09-29T10:12:08;6.90;;;3.43;;
69161;SDS011;56269;51.738;21.652;2022-09-29T10:14:52;9.00;;;4.25;;
69161;SDS011;56269;51.738;21.652;2022-09-29T10:17:24;7.18;;;3.45;;
69161;SDS011;56269;51.738;21.652;2022-09-29T10:19:59;8.23;;;3.22;;
69161;SDS011;56269;51.738;21.652;2022-09-29T10:22:28;7.38;;;3.42;;
69161;SDS011;56269;51.738;21.652;2022-09-29T10:27:34;8.65;;;3.78;;
69161;SDS011;56269;51.738;21.652;2022-09-29T10:30:04;7.05;;;3.40;;
69161;SDS011;56269;51.738;21.652;2022-09-29T10:32:44;7.25;;;2.85;;
69161;SDS011;56269;51.738;21.652;2022-09-29T10:37:41;6.60;;;2.80;;
69161;SDS011;56269;51.738;21.652;2022-09-29T10:42:48;6.70;;;3.13;;
69161;SDS011;56269;51.738;21.652;2022-09-29T10:45:26;7.05;;;3.30;;
69161;SDS011;56269;51.738;21.652;2022-09-29T10:52:57;8.07;;;2.90;;
69161;SDS011;56269;51.738;21.652;2022-09-29T10:55:26;7.10;;;2.97;;
69161;SDS011;56269;51.738;21.652;2022-09-29T10:58:38;6.40;;;3.00;;
69161;SDS011;56269;51.738;21.652;2022-09-29T11:01:00;6.45;;;3.10;;
69161;SDS011;56269;51.738;21.652;2022-09-29T11:03:38;6.40;;;2.70;;
69161;SDS011;56269;51.738;21.652;2022-09-29T11:06:11;7.43;;;3.42;;
69161;SDS011;56269;51.738;21.652;2022-09-29T11:08:55;7.03;;;3.45;;
69161;SDS011;56269;51.738;21.652;2022-09-29T11:11:30;6.90;;;3.03;;
69161;SDS011;56269;51.738;21.652;2022-09-29T11:13:59;8.00;;;3.33;;
69161;SDS011;56269;51.738;21.652;2022-09-29T11:16:29;7.27;;;3.43;;
69161;SDS011;56269;51.738;21.652;2022-09-29T11:19:14;6.90;;;2.90;;
69161;SDS011;56269;51.738;21.652;2022-09-29T11:26:59;6.33;;;2.87;;
69161;SDS011;56269;51.738;21.652;2022-09-29T11:30:10;6.57;;;2.63;;
69161;SDS011;56269;51.738;21.652;2022-09-29T11:32:50;7.68;;;3.47;;
69161;SDS011;56269;51.738;21.652;2022-09-29T11:35:45;7.95;;;2.97;;
69161;SDS011;56269;51.738;21.652;2022-09-29T12:00:11;6.32;;;2.42;;
69161;SDS011;56269;51.738;21.652;2022-09-29T12:02:44;6.85;;;2.40;;
69161;SDS011;56269;51.738;21.652;2022-09-29T12:05:27;6.40;;;2.90;;
69161;SDS011;56269;51.738;21.652;2022-09-29T12:13:37;5.90;;;2.70;;
69161;SDS011;56269;51.738;21.652;2022-09-29T12:16:17;6.97;;;2.92;;
69161;SDS011;56269;51.738;21.652;2022-09-29T12:21:22;6.30;;;2.65;;
69161;SDS011;56269;51.738;21.652;2022-09-29T12:23:56;7.13;;;2.80;;
69161;SDS011;56269;51.738;21.652;2022-09-29T12:26:24;6.45;;;2.60;;
69161;SDS011;56269;51.738;21.652;2022-09-29T12:28:55;6.35;;;3.03;;
69161;SDS011;56269;51.738;21.652;2022-09-29T12:31:32;6.73;;;2.63;;
69161;SDS011;56269;51.738;21.652;2022-09-29T12:34:45;5.63;;;2.55;;
69161;SDS011;56269;51.738;21.652;2022-09-29T12:40:29;5.70;;;2.60;;
69161;SDS011;56269;51.738;21.652;2022-09-29T12:49:10;6.18;;;2.55;;
69161;SDS011;56269;51.738;21.652;2022-09-29T12:51:52;5.82;;;2.90;;
69161;SDS011;56269;51.738;21.652;2022-09-29T12:57:07;6.35;;;2.65;;
69161;SDS011;56269;51.738;21.652;2022-09-29T12:59:54;5.70;;;2.60;;
69161;SDS011;56269;51.738;21.652;2022-09-29T13:25:16;5.63;;;2.30;;
69161;SDS011;56269;51.738;21.652;2022-09-29T13:27:46;5.63;;;2.40;;
69161;SDS011;56269;51.738;21.652;2022-09-29T13:30:15;5.68;;;2.53;;
69161;SDS011;56269;51.738;21.652;2022-09-29T13:32:44;5.97;;;2.53;;
69161;SDS011;56269;51.738;21.652;2022-09-29T13:35:20;6.10;;;2.60;;
69161;SDS011;56269;51.738;21.652;2022-09-29T13:37:49;5.70;;;2.33;;
69161;SDS011;56269;51.738;21.652;2022-09-29T13:40:19;5.93;;;2.50;;
69161;SDS011;56269;51.738;21.652;2022-09-29T13:42:49;6.15;;;2.67;;
69161;SDS011;56269;51.738;21.652;2022-09-29T13:47:49;5.72;;;2.47;;
69161;SDS011;56269;51.738;21.652;2022-09-29T13:56:16;6.45;;;2.50;;
69161;SDS011;56269;51.738;21.652;2022-09-29T14:01:11;5.47;;;2.30;;
69161;SDS011;56269;51.738;21.652;2022-09-29T14:03:44;5.27;;;2.20;;
69161;SDS011;56269;51.738;21.652;2022-09-29T14:09:05;5.95;;;2.58;;
69161;SDS011;56269;51.738;21.652;2022-09-29T14:11:39;7.30;;;2.30;;
69161;SDS011;56269;51.738;21.652;2022-09-29T14:14:18;6.60;;;2.42;;
69161;SDS011;56269;51.738;21.652;2022-09-29T14:27:39;5.15;;;2.40;;
69161;SDS011;56269;51.738;21.652;2022-09-29T14:30:18;5.20;;;2.20;;
69161;SDS011;56269;51.738;21.652;2022-09-29T14:33:42;5.40;;;2.30;;
69161;SDS011;56269;51.738;21.652;2022-09-29T14:38:29;5.10;;;2.30;;
69161;SDS011;56269;51.738;21.652;2022-09-29T14:41:01;5.78;;;2.40;;
69161;SDS011;56269;51.738;21.652;2022-09-29T14:49:18;5.75;;;2.30;;
69161;SDS011;56269;51.738;21.652;2022-09-29T15:03:31;5.32;;;2.42;;
69161;SDS011;56269;51.738;21.652;2022-09-29T15:06:02;5.82;;;2.20;;
69161;SDS011;56269;51.738;21.652;2022-09-29T15:08:30;5.00;;;2.10;;
69161;SDS011;56269;51.738;21.652;2022-09-29T15:10:58;4.40;;;2.10;;
69161;SDS011;56269;51.738;21.652;2022-09-29T15:13:25;6.05;;;2.30;;
69161;SDS011;56269;51.738;21.652;2022-09-29T15:16:03;5.18;;;2.28;;
69161;SDS011;56269;51.738;21.652;2022-09-29T15:21:21;6.55;;;2.40;;
69161;SDS011;56269;51.738;21.652;2022-09-29T15:24:01;5.33;;;2.47;;
69161;SDS011;56269;51.738;21.652;2022-09-29T15:26:42;5.70;;;2.70;;
69161;SDS011;56269;51.738;21.652;2022-09-29T15:29:12;6.95;;;2.60;;
69161;SDS011;56269;51.738;21.652;2022-09-29T15:31:43;5.85;;;2.60;;
69161;SDS011;56269;51.738;21.652;2022-09-29T15:34:13;6.15;;;2.70;;
69161;SDS011;56269;51.738;21.652;2022-09-29T15:36:44;5.73;;;2.70;;
69161;SDS011;56269;51.738;21.652;2022-09-29T15:39:38;6.38;;;2.70;;
69161;SDS011;56269;51.738;21.652;2022-09-29T15:42:12;6.22;;;3.00;;
69161;SDS011;56269;51.738;21.652;2022-09-29T15:44:44;6.07;;;2.92;;
69161;SDS011;56269;51.738;21.652;2022-09-29T15:47:22;7.05;;;2.70;;
69161;SDS011;56269;51.738;21.652;2022-09-29T15:49:59;7.17;;;2.87;;
69161;SDS011;56269;51.738;21.652;2022-09-29T15:52:48;6.55;;;3.15;;
69161;SDS011;56269;51.738;21.652;2022-09-29T15:55:16;7.38;;;3.47;;
69161;SDS011;56269;51.738;21.652;2022-09-29T15:57:46;7.70;;;3.30;;
69161;SDS011;56269;51.738;21.652;2022-09-29T16:05:40;9.00;;;4.43;;
69161;SDS011;56269;51.738;21.652;2022-09-29T16:08:14;11.43;;;6.13;;
69161;SDS011;56269;51.738;21.652;2022-09-29T16:10:51;10.55;;;5.93;;
69161;SDS011;56269;51.738;21.652;2022-09-29T16:13:21;13.40;;;7.15;;
69161;SDS011;56269;51.738;21.652;2022-09-29T16:15:54;14.10;;;7.87;;
69161;SDS011;56269;51.738;21.652;2022-09-29T16:21:05;15.02;;;7.50;;
69161;SDS011;56269;51.738;21.652;2022-09-29T16:26:17;9.65;;;4.57;;
69161;SDS011;56269;51.738;21.652;2022-09-29T16:29:21;9.00;;;4.03;;
69161;SDS011;56269;51.738;21.652;2022-09-29T16:31:43;10.13;;;3.97;;
69161;SDS011;56269;51.738;21.652;2022-09-29T16:39:30;31.08;;;13.60;;
69161;SDS011;56269;51.738;21.652;2022-09-29T16:42:00;35.80;;;16.17;;
69161;SDS011;56269;51.738;21.652;2022-09-29T16:49:52;39.30;;;18.13;;
69161;SDS011;56269;51.738;21.652;2022-09-29T16:54:48;50.37;;;23.30;;
69161;SDS011;56269;51.738;21.652;2022-09-29T16:59:49;28.15;;;12.70;;
69161;SDS011;56269;51.738;21.652;2022-09-29T17:02:20;28.52;;;13.50;;
69161;SDS011;56269;51.738;21.652;2022-09-29T17:04:47;41.65;;;21.45;;
69161;SDS011;56269;51.738;21.652;2022-09-29T17:07:15;74.67;;;34.90;;
69161;SDS011;56269;51.738;21.652;2022-09-29T17:09:44;62.97;;;32.03;;
69161;SDS011;56269;51.738;21.652;2022-09-29T17:12:20;72.07;;;38.08;;
69161;SDS011;56269;51.738;21.652;2022-09-29T17:14:47;88.57;;;42.65;;
69161;SDS011;56269;51.738;21.652;2022-09-29T17:17:16;90.53;;;43.00;;
69161;SDS011;56269;51.738;21.652;2022-09-29T17:19:53;59.53;;;32.67;;
69161;SDS011;56269;51.738;21.652;2022-09-29T17:24:57;61.55;;;32.95;;
69161;SDS011;56269;51.738;21.652;2022-09-29T17:27:24;62.13;;;33.00;;
69161;SDS011;56269;51.738;21.652;2022-09-29T17:30:10;65.25;;;33.10;;
69161;SDS011;56269;51.738;21.652;2022-09-29T17:32:42;65.93;;;32.73;;
69161;SDS011;56269;51.738;21.652;2022-09-29T17:35:12;72.45;;;35.15;;
69161;SDS011;56269;51.738;21.652;2022-09-29T17:37:40;77.22;;;36.28;;
69161;SDS011;56269;51.738;21.652;2022-09-29T17:40:15;99.82;;;48.72;;
69161;SDS011;56269;51.738;21.652;2022-09-29T17:43:06;78.40;;;39.63;;
69161;SDS011;56269;51.738;21.652;2022-09-29T17:45:32;49.60;;;25.17;;
69161;SDS011;56269;51.738;21.652;2022-09-29T17:48:00;50.25;;;25.70;;
69161;SDS011;56269;51.738;21.652;2022-09-29T17:50:31;55.78;;;27.10;;
69161;SDS011;56269;51.738;21.652;2022-09-29T17:53:01;64.80;;;31.50;;
69161;SDS011;56269;51.738;21.652;2022-09-29T17:55:31;59.67;;;32.63;;
69161;SDS011;56269;51.738;21.652;2022-09-29T17:57:58;43.63;;;21.97;;
69161;SDS011;56269;51.738;21.652;2022-09-29T18:00:26;50.03;;;24.25;;
69161;SDS011;56269;51.738;21.652;2022-09-29T18:02:56;45.38;;;22.85;;
69161;SDS011;56269;51.738;21.652;2022-09-29T18:05:24;46.30;;;22.13;;
69161;SDS011;56269;51.738;21.652;2022-09-29T18:07:52;42.67;;;22.13;;
69161;SDS011;56269;51.738;21.652;2022-09-29T18:12:59;45.05;;;20.65;;
69161;SDS011;56269;51.738;21.652;2022-09-29T18:15:25;42.60;;;19.85;;
69161;SDS011;56269;51.738;21.652;2022-09-29T18:17:56;57.22;;;26.33;;
69161;SDS011;56269;51.738;21.652;2022-09-29T18:20:23;47.33;;;21.90;;
69161;SDS011;56269;51.738;21.652;2022-09-29T18:22:50;45.27;;;21.27;;
69161;SDS011;56269;51.738;21.652;2022-09-29T18:25:17;40.50;;;20.25;;
69161;SDS011;56269;51.738;21.652;2022-09-29T18:27:44;34.90;;;16.30;;